Adamsons Peak, Australia
Current Conditions -  °F | °C
As of 7:00 AM on Monday 26 Jan 2015 (Local Time) from YMHB Reporting Station
Broken Clouds Broken Clouds  
Wind Chill: 54°   Ceiling: 4500
Heat Index: 54°   Visibility: 6mi
Dew Point: 39°   Wind: 13mph
Humidity: 58%   Direction: 320°NW
Pressure: 29.83"   Gusts: NA
Location:  43.35°S, 146.8°E
Report Text: YMHB 252000Z 32011KT 9999 FEW035 BKN045 12/04 Q1010
Loading
Personal Weather Stations






























Interactive Weather Map New forecast layout! Learn more

10-Day Weather Forecast

Advertisements
Track Severe Weather on mobile